Time;durP1;ratioP1;P1;durP2;ratioP2;P2;SDS_P1;SDS_P2;PMS_P1;PMS_P2;Temp;Humidity;BMP_temperature;BMP_pressure;BME280_temperature;BME280_humidity;BME280_pressure;Samples;Min_cycle;Max_cycle;Signal;HPM_P1;HPM_P2
2022/10/12 00:00:17;;;;;;;0.10;0.10;;;;;;;;;;6188769;23;20066;-93
2022/10/12 00:02:43;;;;;;;0.10;0.10;;;;;;;;;;6187830;23;20020;-93
2022/10/12 00:05:09;;;;;;;0.10;0.10;;;;;;;;;;6212549;23;20016;-93
2022/10/12 00:07:37;;;;;;;0.10;0.10;;;;;;;;;;6188390;23;20465;-93
2022/10/12 00:10:04;;;;;;;0.10;0.10;;;;;;;;;;6188291;23;20016;-93
2022/10/12 00:12:30;;;;;;;0.10;0.10;;;;;;;;;;6188240;23;20013;-93
2022/10/12 00:14:57;;;;;;;0.10;0.10;;;;;;;;;;6188293;23;20019;-92
2022/10/12 00:17:23;;;;;;;0.10;0.10;;;;;;;;;;6188649;23;20020;-92
2022/10/12 00:19:51;;;;;;;0.10;0.10;;;;;;;;;;6189818;23;20009;-92
2022/10/12 00:22:19;;;;;;;0.10;0.10;;;;;;;;;;6188898;23;20020;-93
2022/10/12 00:24:45;;;;;;;0.20;0.20;;;;;;;;;;6189095;23;20012;-94
2022/10/12 00:27:11;;;;;;;0.10;0.10;;;;;;;;;;6188730;23;20060;-95
2022/10/12 00:29:37;;;;;;;0.10;0.10;;;;;;;;;;6189182;23;20095;-94
2022/10/12 00:32:03;;;;;;;0.10;0.10;;;;;;;;;;6188394;23;20102;-93
2022/10/12 00:34:29;;;;;;;0.10;0.10;;;;;;;;;;6188373;23;20089;-92
2022/10/12 00:36:55;;;;;;;0.10;0.10;;;;;;;;;;6188922;23;20438;-93
2022/10/12 00:39:21;;;;;;;0.10;0.10;;;;;;;;;;6188397;23;20020;-93
2022/10/12 00:41:48;;;;;;;0.10;0.10;;;;;;;;;;6188350;23;20323;-93
2022/10/12 00:44:33;;;;;;;0.10;0.10;;;;;;;;;;6188675;23;20017;-93
2022/10/12 00:47:00;;;;;;;0.10;0.10;;;;;;;;;;6213253;23;20017;-93
2022/10/12 00:49:26;;;;;;;0.10;0.10;;;;;;;;;;6188417;23;20020;-93
2022/10/12 00:51:57;;;;;;;0.10;0.10;;;;;;;;;;6188036;23;20450;-92
2022/10/12 00:54:24;;;;;;;0.10;0.10;;;;;;;;;;6213215;23;20023;-92
2022/10/12 00:56:53;;;;;;;0.10;0.10;;;;;;;;;;6187979;23;20013;-92
2022/10/12 00:59:21;;;;;;;0.10;0.10;;;;;;;;;;6212637;23;20505;-92
2022/10/12 01:01:47;;;;;;;0.10;0.10;;;;;;;;;;6187582;23;20236;-92
2022/10/12 01:04:14;;;;;;;0.10;0.10;;;;;;;;;;6187955;23;20084;-92
2022/10/12 01:06:40;;;;;;;0.10;0.10;;;;;;;;;;6187936;23;20016;-93
2022/10/12 01:09:06;;;;;;;0.10;0.10;;;;;;;;;;6188295;23;20008;-93
2022/10/12 01:11:33;;;;;;;0.10;0.10;;;;;;;;;;6187775;23;20476;-94
2022/10/12 01:14:02;;;;;;;0.10;0.10;;;;;;;;;;6188166;23;20400;-93
2022/10/12 01:16:29;;;;;;;0.10;0.10;;;;;;;;;;6214883;23;20012;-93
2022/10/12 01:19:04;;;;;;;0.10;0.10;;;;;;;;;;6190483;23;20032;-93
2022/10/12 01:21:31;;;;;;;0.10;0.10;;;;;;;;;;6214558;23;20019;-93
2022/10/12 01:24:17;;;;;;;0.10;0.10;;;;;;;;;;6215280;23;20016;-93
2022/10/12 01:26:44;;;;;;;0.10;0.10;;;;;;;;;;6213937;23;20055;-93
2022/10/12 01:29:35;;;;;;;0.10;0.10;;;;;;;;;;6215081;23;20017;-94
2022/10/12 01:32:43;;;;;;;0.10;0.10;;;;;;;;;;6216035;23;20020;-96
2022/10/12 01:35:12;;;;;;;0.10;0.10;;;;;;;;;;6215145;23;20012;-96
2022/10/12 01:37:43;;;;;;;0.10;0.10;;;;;;;;;;6214782;23;20047;-95
2022/10/12 01:40:42;;;;;;;0.10;0.10;;;;;;;;;;6189991;23;20009;-95
2022/10/12 01:43:08;;;;;;;0.10;0.10;;;;;;;;;;6186104;23;20020;-96
2022/10/12 01:45:34;;;;;;;0.10;0.10;;;;;;;;;;6214173;23;20012;-96
2022/10/12 01:48:00;;;;;;;0.10;0.10;;;;;;;;;;6190596;23;20380;-95
2022/10/12 01:50:37;;;;;;;0.10;0.10;;;;;;;;;;6190186;23;20055;-94
2022/10/12 01:53:16;;;;;;;0.10;0.10;;;;;;;;;;6214429;23;20020;-95
2022/10/12 01:55:57;;;;;;;0.10;0.10;;;;;;;;;;6190235;23;20016;-95
2022/10/12 01:58:30;;;;;;;0.05;0.05;;;;;;;;;;6190380;23;20032;-95
2022/10/12 02:01:02;;;;;;;0.10;0.10;;;;;;;;;;6190520;23;20012;-95
2022/10/12 02:03:30;;;;;;;;;;;;;;;;;;6190031;23;20315;-92
2022/10/12 02:06:00;;;;;;;0.10;0.10;;;;;;;;;;6190064;23;19939;-93
2022/10/12 02:08:38;;;;;;;0.10;0.10;;;;;;;;;;6191620;23;20473;-93
2022/10/12 02:11:39;;;;;;;0.10;0.10;;;;;;;;;;6189286;23;20330;-93
2022/10/12 02:14:10;;;;;;;0.10;0.10;;;;;;;;;;6214236;23;20024;-93
2022/10/12 02:16:37;;;;;;;0.10;0.10;;;;;;;;;;6189840;23;20009;-93
2022/10/12 02:19:04;;;;;;;0.10;0.10;;;;;;;;;;6189616;23;20449;-94
2022/10/12 02:21:31;;;;;;;0.10;0.10;;;;;;;;;;6214603;23;20039;-93
2022/10/12 02:23:58;;;;;;;0.10;0.10;;;;;;;;;;6189498;23;20013;-92
2022/10/12 02:26:24;;;;;;;0.10;0.10;;;;;;;;;;6188310;23;20017;-92
2022/10/12 02:28:50;;;;;;;0.10;0.10;;;;;;;;;;6188559;23;20059;-91
2022/10/12 02:31:25;;;;;;;0.10;0.10;;;;;;;;;;6188880;23;20067;-92
2022/10/12 02:33:57;;;;;;;0.10;0.10;;;;;;;;;;6188473;23;20064;-92
2022/10/12 02:36:25;;;;;;;0.10;0.10;;;;;;;;;;6189053;23;20066;-91
2022/10/12 02:38:56;;;;;;;0.10;0.10;;;;;;;;;;6188394;23;20012;-91
2022/10/12 02:41:24;;;;;;;0.10;0.10;;;;;;;;;;6188774;23;20009;-91
2022/10/12 02:43:51;;;;;;;0.10;0.10;;;;;;;;;;6188689;23;20013;-91
2022/10/12 02:46:18;;;;;;;0.10;0.10;;;;;;;;;;6188575;23;20025;-91
2022/10/12 02:48:44;;;;;;;0.10;0.10;;;;;;;;;;6188700;23;20012;-92
2022/10/12 02:51:10;;;;;;;0.10;0.10;;;;;;;;;;6188510;23;20030;-92
2022/10/12 02:53:37;;;;;;;0.10;0.10;;;;;;;;;;6188648;23;20019;-93
2022/10/12 02:56:05;;;;;;;0.10;0.10;;;;;;;;;;6188609;23;20012;-93
2022/10/12 02:58:31;;;;;;;0.10;0.10;;;;;;;;;;6188638;23;20016;-93
2022/10/12 03:00:58;;;;;;;0.10;0.10;;;;;;;;;;6188303;23;20019;-93
2022/10/12 03:03:25;;;;;;;0.10;0.10;;;;;;;;;;6188632;23;20017;-93
2022/10/12 03:05:58;;;;;;;0.10;0.10;;;;;;;;;;6189104;23;20100;-95
2022/10/12 03:08:24;;;;;;;0.10;0.10;;;;;;;;;;6214601;23;20017;-95
2022/10/12 03:10:50;;;;;;;0.10;0.10;;;;;;;;;;6188856;23;20043;-95
2022/10/12 03:13:16;;;;;;;0.10;0.10;;;;;;;;;;6189295;23;20099;-93
2022/10/12 03:15:42;;;;;;;0.10;0.10;;;;;;;;;;6189077;23;20051;-94
2022/10/12 03:18:09;;;;;;;0.10;0.10;;;;;;;;;;6214139;23;20472;-94
2022/10/12 03:20:35;;;;;;;0.10;0.10;;;;;;;;;;6188928;23;20052;-94
2022/10/12 03:23:02;;;;;;;0.10;0.10;;;;;;;;;;6188806;23;20452;-93
2022/10/12 03:25:28;;;;;;;0.10;0.10;;;;;;;;;;6188948;23;20098;-93
2022/10/12 03:27:54;;;;;;;0.10;0.10;;;;;;;;;;6188556;23;20020;-92
2022/10/12 03:30:23;;;;;;;0.10;0.10;;;;;;;;;;6189020;23;20062;-93
2022/10/12 03:32:50;;;;;;;0.10;0.10;;;;;;;;;;6188739;23;20096;-92
2022/10/12 03:35:16;;;;;;;0.10;0.10;;;;;;;;;;6189078;23;20020;-93
2022/10/12 03:37:42;;;;;;;0.10;0.10;;;;;;;;;;6188216;23;20374;-92
2022/10/12 03:40:08;;;;;;;0.10;0.10;;;;;;;;;;6188903;23;20024;-93
2022/10/12 03:42:35;;;;;;;0.10;0.10;;;;;;;;;;6188718;23;20004;-94
2022/10/12 03:45:01;;;;;;;0.10;0.10;;;;;;;;;;6213500;23;20015;-94
2022/10/12 03:47:27;;;;;;;0.10;0.10;;;;;;;;;;6188704;23;20032;-92
2022/10/12 03:49:53;;;;;;;0.10;0.10;;;;;;;;;;6188392;23;20442;-93
2022/10/12 03:52:22;;;;;;;0.10;0.10;;;;;;;;;;6213262;23;20027;-93
2022/10/12 03:54:52;;;;;;;0.10;0.10;;;;;;;;;;6212952;23;20401;-93
2022/10/12 03:57:18;;;;;;;0.10;0.10;;;;;;;;;;6213464;23;20020;-92
2022/10/12 03:59:44;;;;;;;0.10;0.10;;;;;;;;;;6188117;23;20020;-92
2022/10/12 04:02:10;;;;;;;0.10;0.10;;;;;;;;;;6212655;23;20019;-91
2022/10/12 04:04:36;;;;;;;0.10;0.10;;;;;;;;;;6188639;23;20099;-90
2022/10/12 04:07:02;;;;;;;0.10;0.10;;;;;;;;;;6191119;23;20021;-90
2022/10/12 04:09:28;;;;;;;0.10;0.10;;;;;;;;;;6191481;23;20103;-91
2022/10/12 04:11:55;;;;;;;0.10;0.10;;;;;;;;;;6192740;23;20059;-93
2022/10/12 04:14:21;;;;;;;0.10;0.10;;;;;;;;;;6213993;23;20379;-92
2022/10/12 04:16:48;;;;;;;0.10;0.10;;;;;;;;;;6188544;23;20013;-93
2022/10/12 04:19:15;;;;;;;0.10;0.10;;;;;;;;;;6213035;23;20040;-92
2022/10/12 04:21:42;;;;;;;0.10;0.10;;;;;;;;;;6187990;23;20017;-93
2022/10/12 04:24:08;;;;;;;0.10;0.10;;;;;;;;;;6212842;23;20020;-92
2022/10/12 04:26:34;;;;;;;0.10;0.10;;;;;;;;;;6188577;23;20018;-92
2022/10/12 04:29:00;;;;;;;0.10;0.10;;;;;;;;;;6188331;23;20091;-93
2022/10/12 04:31:26;;;;;;;0.10;0.10;;;;;;;;;;6187956;23;20401;-93
2022/10/12 04:33:55;;;;;;;0.10;0.10;;;;;;;;;;6188397;23;20021;-95
2022/10/12 04:36:25;;;;;;;0.10;0.10;;;;;;;;;;6189539;23;20430;-94
2022/10/12 04:38:51;;;;;;;0.10;0.10;;;;;;;;;;6187978;23;20062;-94
2022/10/12 04:41:19;;;;;;;0.10;0.10;;;;;;;;;;6188364;23;20012;-93
2022/10/12 04:43:45;;;;;;;0.10;0.10;;;;;;;;;;6212634;23;20091;-94
2022/10/12 04:46:13;;;;;;;0.10;0.10;;;;;;;;;;6188330;23;20024;-95
2022/10/12 04:48:39;;;;;;;0.10;0.10;;;;;;;;;;6212666;23;20012;-94
2022/10/12 04:51:05;;;;;;;0.10;0.10;;;;;;;;;;6190032;23;20047;-94
2022/10/12 04:53:36;;;;;;;0.10;0.10;;;;;;;;;;6190030;23;20012;-94
2022/10/12 04:56:10;;;;;;;0.10;0.10;;;;;;;;;;6215671;23;20058;-94
2022/10/12 04:58:36;;;;;;;0.10;0.10;;;;;;;;;;6215688;23;20087;-94
2022/10/12 05:01:02;;;;;;;0.10;0.10;;;;;;;;;;6190376;23;20389;-94
2022/10/12 05:03:32;;;;;;;0.10;0.10;;;;;;;;;;6190147;23;20055;-94
2022/10/12 05:05:58;;;;;;;0.10;0.10;;;;;;;;;;6214995;23;20020;-94
2022/10/12 05:08:24;;;;;;;0.10;0.10;;;;;;;;;;6189927;23;20013;-93
2022/10/12 05:10:51;;;;;;;0.10;0.10;;;;;;;;;;6195002;22;20040;-93
2022/10/12 05:13:17;;;;;;;0.10;0.10;;;;;;;;;;6244986;23;20027;-94
2022/10/12 05:15:44;;;;;;;0.10;0.10;;;;;;;;;;6194743;23;20034;-93
2022/10/12 05:18:10;;;;;;;0.10;0.10;;;;;;;;;;6195482;23;20008;-94
2022/10/12 05:20:36;;;;;;;0.10;0.10;;;;;;;;;;6191450;23;20100;-94
2022/10/12 05:23:02;;;;;;;0.10;0.10;;;;;;;;;;6190090;23;20052;-94
2022/10/12 05:25:29;;;;;;;0.10;0.10;;;;;;;;;;6190187;23;20016;-93
2022/10/12 05:27:55;;;;;;;0.10;0.10;;;;;;;;;;6189923;23;20029;-93
2022/10/12 05:30:21;;;;;;;0.10;0.10;;;;;;;;;;6189622;23;20468;-94
2022/10/12 05:32:47;;;;;;;0.10;0.10;;;;;;;;;;6190061;23;20012;-94
2022/10/12 05:35:13;;;;;;;0.10;0.10;;;;;;;;;;6189749;23;20008;-93
2022/10/12 05:37:42;;;;;;;0.10;0.10;;;;;;;;;;6190361;23;20087;-94
2022/10/12 05:40:13;;;;;;;0.10;0.10;;;;;;;;;;6214856;23;20012;-94
2022/10/12 05:42:39;;;;;;;0.10;0.10;;;;;;;;;;6214794;23;20438;-94
2022/10/12 05:45:05;;;;;;;0.10;0.10;;;;;;;;;;6189995;23;20023;-94
2022/10/12 05:47:31;;;;;;;0.10;0.10;;;;;;;;;;6190044;23;20012;-93
2022/10/12 05:49:57;;;;;;;0.10;0.10;;;;;;;;;;6189916;23;20342;-94
2022/10/12 05:52:24;;;;;;;0.10;0.10;;;;;;;;;;6190022;23;20538;-95
2022/10/12 05:54:50;;;;;;;0.10;0.10;;;;;;;;;;6215641;23;20017;-93
2022/10/12 05:57:19;;;;;;;0.10;0.10;;;;;;;;;;6214559;23;20334;-95
2022/10/12 05:59:45;;;;;;;0.10;0.10;;;;;;;;;;6189283;23;20017;-89
2022/10/12 06:02:16;;;;;;;0.10;0.10;;;;;;;;;;6189138;23;20023;-93
2022/10/12 06:04:43;;;;;;;0.10;0.10;;;;;;;;;;6214529;23;20021;-91
2022/10/12 06:07:09;;;;;;;0.10;0.10;;;;;;;;;;6213643;23;20019;-92
2022/10/12 06:09:37;;;;;;;0.10;0.10;;;;;;;;;;6188674;23;20095;-90
2022/10/12 06:12:04;;;;;;;0.10;0.10;;;;;;;;;;6214204;23;20347;-88
2022/10/12 06:14:32;;;;;;;0.10;0.10;;;;;;;;;;6213635;23;20021;-94
2022/10/12 06:16:58;;;;;;;0.10;0.10;;;;;;;;;;6188795;23;20064;-90
2022/10/12 06:19:26;;;;;;;0.10;0.10;;;;;;;;;;6189529;23;20028;-95
2022/10/12 06:21:52;;;;;;;0.10;0.10;;;;;;;;;;6191459;23;20015;-89
2022/10/12 06:24:21;;;;;;;0.10;0.10;;;;;;;;;;6190913;23;20016;-90
2022/10/12 06:26:55;;;;;;;0.10;0.10;;;;;;;;;;6214525;23;20020;-93
2022/10/12 06:29:23;;;;;;;0.10;0.10;;;;;;;;;;6214461;23;20271;-93
2022/10/12 06:31:50;;;;;;;0.10;0.10;;;;;;;;;;6213888;23;20071;-92
2022/10/12 06:34:16;;;;;;;0.10;0.10;;;;;;;;;;6213529;23;20012;-93
2022/10/12 06:36:43;;;;;;;0.10;0.10;;;;;;;;;;6188799;23;20328;-91
2022/10/12 06:39:09;;;;;;;0.10;0.10;;;;;;;;;;6213539;23;20016;-90
2022/10/12 06:41:37;;;;;;;0.10;0.10;;;;;;;;;;6213883;23;20195;-94
2022/10/12 06:44:04;;;;;;;0.10;0.10;;;;;;;;;;6212478;23;20379;-89
2022/10/12 06:46:30;;;;;;;0.10;0.10;;;;;;;;;;6187743;23;20527;-89
2022/10/12 06:48:56;;;;;;;0.10;0.10;;;;;;;;;;6188322;23;20044;-89
2022/10/12 06:51:22;;;;;;;0.10;0.10;;;;;;;;;;6213387;23;20013;-90
2022/10/12 06:53:48;;;;;;;0.10;0.10;;;;;;;;;;6187720;23;20099;-91
2022/10/12 06:56:14;;;;;;;0.10;0.10;;;;;;;;;;6188205;23;20036;-89
2022/10/12 06:58:40;;;;;;;0.10;0.10;;;;;;;;;;6188187;23;20011;-89
2022/10/12 07:01:07;;;;;;;0.10;0.10;;;;;;;;;;6213524;23;20087;-89
2022/10/12 07:03:33;;;;;;;0.10;0.10;;;;;;;;;;6188140;23;20019;-90
2022/10/12 07:06:09;;;;;;;0.10;0.10;;;;;;;;;;6188099;23;20040;-90
2022/10/12 07:08:35;;;;;;;0.10;0.10;;;;;;;;;;6187874;23;20371;-90
2022/10/12 07:11:01;;;;;;;0.22;0.22;;;;;;;;;;6187527;23;20091;-90
2022/10/12 07:13:27;;;;;;;0.10;0.10;;;;;;;;;;6187213;23;20020;-90
2022/10/12 07:15:53;;;;;;;0.10;0.10;;;;;;;;;;6187856;23;20334;-89
2022/10/12 07:18:19;;;;;;;0.10;0.10;;;;;;;;;;6187822;23;20015;-90
2022/10/12 07:20:45;;;;;;;0.10;0.10;;;;;;;;;;6187540;23;20015;-88
2022/10/12 07:23:11;;;;;;;0.10;0.10;;;;;;;;;;6213092;23;20017;-89
2022/10/12 07:25:37;;;;;;;0.10;0.10;;;;;;;;;;6187828;23;20031;-88
2022/10/12 07:28:05;;;;;;;0.10;0.10;;;;;;;;;;6212628;23;20062;-91
2022/10/12 07:30:31;;;;;;;0.10;0.10;;;;;;;;;;6187859;23;20016;-90
2022/10/12 07:32:57;;;;;;;0.10;0.10;;;;;;;;;;6187412;23;20044;-87
2022/10/12 07:35:23;;;;;;;0.10;0.10;;;;;;;;;;6212653;23;20066;-85
2022/10/12 07:37:49;;;;;;;0.10;0.10;;;;;;;;;;6212690;23;20039;-88
2022/10/12 07:40:15;;;;;;;0.10;0.10;;;;;;;;;;6212663;23;20088;-87
2022/10/12 07:42:41;;;;;;;0.10;0.10;;;;;;;;;;6212671;23;20019;-89
2022/10/12 07:45:07;;;;;;;0.10;0.10;;;;;;;;;;6214159;23;20012;-90
2022/10/12 07:47:33;;;;;;;0.10;0.10;;;;;;;;;;6188390;23;20012;-87
2022/10/12 07:49:59;;;;;;;0.10;0.10;;;;;;;;;;6187242;23;20039;-91
2022/10/12 07:52:27;;;;;;;0.10;0.10;;;;;;;;;;6187630;23;20059;-90
2022/10/12 07:54:53;;;;;;;0.10;0.10;;;;;;;;;;6187669;23;20072;-89
2022/10/12 07:57:19;;;;;;;0.20;0.20;;;;;;;;;;6187670;23;20012;-89
2022/10/12 07:59:45;;;;;;;0.10;0.10;;;;;;;;;;6212618;23;20013;-88
2022/10/12 08:02:11;;;;;;;0.10;0.10;;;;;;;;;;6187496;23;20133;-89
2022/10/12 08:04:37;;;;;;;0.10;0.10;;;;;;;;;;6212431;23;20013;-89
2022/10/12 08:07:03;;;;;;;0.10;0.10;;;;;;;;;;6187410;23;20019;-90
2022/10/12 08:09:29;;;;;;;0.10;0.10;;;;;;;;;;6212594;23;20016;-90
2022/10/12 08:11:55;;;;;;;0.10;0.10;;;;;;;;;;6187173;23;20091;-90
2022/10/12 08:14:21;;;;;;;0.10;0.10;;;;;;;;;;6187169;23;20051;-90
2022/10/12 08:16:47;;;;;;;0.10;0.10;;;;;;;;;;6187734;23;20015;-91
2022/10/12 08:19:13;;;;;;;0.10;0.10;;;;;;;;;;6188155;23;20074;-93
2022/10/12 08:21:41;;;;;;;0.10;0.10;;;;;;;;;;6187191;23;20040;-91
2022/10/12 08:24:07;;;;;;;0.10;0.10;;;;;;;;;;6187649;23;20323;-90
2022/10/12 08:26:33;;;;;;;0.10;0.10;;;;;;;;;;6189507;23;20023;-89
2022/10/12 08:29:01;;;;;;;0.10;0.10;;;;;;;;;;6214602;23;20012;-88
2022/10/12 08:31:27;;;;;;;0.10;0.10;;;;;;;;;;6214225;23;20013;-89
2022/10/12 08:33:53;;;;;;;0.10;0.10;;;;;;;;;;6189499;23;20326;-88
2022/10/12 08:36:19;;;;;;;0.10;0.10;;;;;;;;;;6214550;23;20013;-88
2022/10/12 08:38:48;;;;;;;0.10;0.10;;;;;;;;;;6214486;23;20019;-87
2022/10/12 08:41:20;;;;;;;0.10;0.10;;;;;;;;;;6189559;23;20020;-87
2022/10/12 08:43:52;;;;;;;0.10;0.10;;;;;;;;;;6214220;23;20013;-88
2022/10/12 08:46:18;;;;;;;;;;;;;;;;;;6214118;23;20017;-88
2022/10/12 08:48:50;;;;;;;0.10;0.10;;;;;;;;;;6189387;23;19951;-88
2022/10/12 08:51:17;;;;;;;0.10;0.10;;;;;;;;;;6214540;23;20017;-89
2022/10/12 08:53:57;;;;;;;0.10;0.10;;;;;;;;;;6214327;23;20091;-87
2022/10/12 08:56:23;;;;;;;0.10;0.10;;;;;;;;;;6189395;23;20040;-88
2022/10/12 08:58:50;;;;;;;0.10;0.10;;;;;;;;;;6189457;23;20465;-89
2022/10/12 09:01:22;;;;;;;0.32;0.32;;;;;;;;;;6214394;23;20084;-88
2022/10/12 09:04:03;;;;;;;0.10;0.10;;;;;;;;;;6214170;23;20388;-87
2022/10/12 09:06:33;;;;;;;0.10;0.10;;;;;;;;;;6214345;23;20055;-90
2022/10/12 09:09:14;;;;;;;0.10;0.10;;;;;;;;;;6214062;23;20017;-87
2022/10/12 09:11:43;;;;;;;0.10;0.10;;;;;;;;;;6239418;22;20024;-89
2022/10/12 09:14:15;;;;;;;0.10;0.10;;;;;;;;;;6214081;23;20202;-92
2022/10/12 09:16:42;;;;;;;0.10;0.10;;;;;;;;;;6189718;23;20013;-92
2022/10/12 09:19:33;;;;;;;0.10;0.10;;;;;;;;;;6214427;23;20015;-93
2022/10/12 09:22:03;;;;;;;0.10;0.10;;;;;;;;;;6233593;22;20020;-92
2022/10/12 09:24:38;;;;;;;0.10;0.10;;;;;;;;;;6192261;23;20048;-93
2022/10/12 09:27:25;;;;;;;0.10;0.10;;;;;;;;;;6194522;23;20012;-93
2022/10/12 09:29:55;;;;;;;0.10;0.10;;;;;;;;;;6218185;23;20094;-94
2022/10/12 09:32:30;;;;;;;0.10;0.10;;;;;;;;;;6218167;23;20420;-93
2022/10/12 09:35:00;;;;;;;0.10;0.10;;;;;;;;;;6219123;23;20055;-95
2022/10/12 09:37:29;;;;;;;0.10;0.10;;;;;;;;;;6197815;23;20087;-96
2022/10/12 09:39:55;;;;;;;0.10;0.10;;;;;;;;;;6195286;23;20019;-93
2022/10/12 09:42:37;;;;;;;0.10;0.10;;;;;;;;;;6198944;23;20012;-96
2022/10/12 10:00:45;;;;;;;0.10;0.10;;;;;;;;;;6237206;22;20453;-94
2022/10/12 10:03:11;;;;;;;;;;;;;;;;;;6219819;23;20016;-92
2022/10/12 10:05:39;;;;;;;0.10;0.10;;;;;;;;;;6218330;23;19915;-94
2022/10/12 10:08:18;;;;;;;0.10;0.10;;;;;;;;;;6193877;23;20333;-94
2022/10/12 10:10:52;;;;;;;0.20;0.20;;;;;;;;;;6244538;22;20059;-93
2022/10/12 10:13:18;;;;;;;0.10;0.10;;;;;;;;;;6193999;23;20020;-91
2022/10/12 10:15:48;;;;;;;0.10;0.10;;;;;;;;;;6218564;23;20107;-92
2022/10/12 10:18:22;;;;;;;0.10;0.10;;;;;;;;;;6193992;23;20016;-92
2022/10/12 10:20:52;;;;;;;0.10;0.10;;;;;;;;;;6243841;22;20017;-89
2022/10/12 10:23:31;;;;;;;0.10;0.10;;;;;;;;;;6218882;23;20349;-91
2022/10/12 10:25:58;;;;;;;0.10;0.10;;;;;;;;;;6219535;23;20082;-92
2022/10/12 10:28:49;;;;;;;0.10;0.10;;;;;;;;;;6193953;23;20100;-93
2022/10/12 10:31:34;;;;;;;0.10;0.10;;;;;;;;;;6219061;23;20016;-93
2022/10/12 10:34:27;;;;;;;0.10;0.10;;;;;;;;;;6244132;23;20027;-94
2022/10/12 10:37:14;;;;;;;0.10;0.10;;;;;;;;;;6244489;23;20015;-93
2022/10/12 10:39:59;;;;;;;0.10;0.10;;;;;;;;;;6244276;23;20019;-92
2022/10/12 10:42:44;;;;;;;0.10;0.10;;;;;;;;;;6243718;22;20015;-90
2022/10/12 10:45:49;;;;;;;0.10;0.10;;;;;;;;;;6222425;23;20015;-91
2022/10/12 10:48:20;;;;;;;0.10;0.10;;;;;;;;;;6194449;23;20437;-91
2022/10/12 10:50:59;;;;;;;0.10;0.10;;;;;;;;;;6193347;23;20326;-89
2022/10/12 10:53:27;;;;;;;0.10;0.10;;;;;;;;;;6218564;23;20109;-94
2022/10/12 10:55:54;;;;;;;0.10;0.10;;;;;;;;;;6194132;23;20178;-95
2022/10/12 10:58:53;;;;;;;0.10;0.10;;;;;;;;;;6194004;23;20032;-96
2022/10/12 11:01:24;;;;;;;0.10;0.10;;;;;;;;;;6168495;23;20020;-92
2022/10/12 11:03:58;;;;;;;0.10;0.10;;;;;;;;;;6193041;23;20279;-92
2022/10/12 11:06:40;;;;;;;0.10;0.10;;;;;;;;;;6193020;23;20012;-92
2022/10/12 11:09:09;;;;;;;0.20;0.20;;;;;;;;;;6193285;23;20014;-91
2022/10/12 11:11:35;;;;;;;0.10;0.10;;;;;;;;;;6217501;23;20460;-91
2022/10/12 11:14:03;;;;;;;0.10;0.10;;;;;;;;;;6192762;23;20024;-92
2022/10/12 11:16:33;;;;;;;0.30;0.30;;;;;;;;;;6192918;23;20098;-92
2022/10/12 11:19:05;;;;;;;0.10;0.10;;;;;;;;;;6193010;23;20015;-92
2022/10/12 11:21:38;;;;;;;0.55;0.55;;;;;;;;;;6192469;23;20019;-93
2022/10/12 11:24:04;;;;;;;0.10;0.10;;;;;;;;;;6192827;23;20074;-93
2022/10/12 11:26:37;;;;;;;0.10;0.10;;;;;;;;;;6218458;23;20066;-94
2022/10/12 11:29:25;;;;;;;0.10;0.10;;;;;;;;;;6199786;23;20054;-95
2022/10/12 11:31:55;;;;;;;0.10;0.10;;;;;;;;;;6246186;22;20023;-96
2022/10/12 11:34:21;;;;;;;0.10;0.10;;;;;;;;;;6219547;23;20012;-94
2022/10/12 11:36:48;;;;;;;0.10;0.10;;;;;;;;;;6194641;23;20008;-96
2022/10/12 11:39:17;;;;;;;0.10;0.10;;;;;;;;;;6194052;23;20019;-95
2022/10/12 11:49:32;;;;;;;0.10;0.10;;;;;;;;;;6249908;22;20208;-93
2022/10/12 11:52:01;;;;;;;0.10;0.10;;;;;;;;;;6195286;23;20017;-93
2022/10/12 11:54:31;;;;;;;0.10;0.10;;;;;;;;;;6212494;23;20024;-91
2022/10/12 11:56:58;;;;;;;0.10;0.10;;;;;;;;;;6213287;23;20040;-94
2022/10/12 11:59:27;;;;;;;0.10;0.10;;;;;;;;;;6188565;23;20012;-94
2022/10/12 12:02:12;;;;;;;0.10;0.10;;;;;;;;;;6193454;22;20024;-94
2022/10/12 12:04:44;;;;;;;;;;;;;;;;;;6165134;23;20021;-93
2022/10/12 12:07:30;;;;;;;0.63;0.63;;;;;;;;;;6213155;23;20283;-93
2022/10/12 12:10:30;;;;;;;0.10;0.10;;;;;;;;;;6213137;23;20008;-95
2022/10/12 12:13:10;;;;;;;0.10;0.10;;;;;;;;;;6162767;23;20013;-92
2022/10/12 12:15:36;;;;;;;0.10;0.10;;;;;;;;;;6158041;23;20013;-93
2022/10/12 12:18:16;;;;;;;0.10;0.10;;;;;;;;;;6133883;23;20020;-92
2022/10/12 12:20:48;;;;;;;0.10;0.10;;;;;;;;;;6133660;23;20025;-93
2022/10/12 12:23:24;;;;;;;0.10;0.10;;;;;;;;;;6158525;23;20017;-93
2022/10/12 12:26:09;;;;;;;0.10;0.10;;;;;;;;;;6134358;23;20466;-94
2022/10/12 12:28:55;;;;;;;0.10;0.10;;;;;;;;;;6182905;23;20009;-94
2022/10/12 12:31:27;;;;;;;0.10;0.10;;;;;;;;;;6158266;23;20103;-94
2022/10/12 12:34:01;;;;;;;0.10;0.10;;;;;;;;;;6182805;23;20060;-94
2022/10/12 12:36:33;;;;;;;0.17;0.17;;;;;;;;;;6158652;23;20413;-94
2022/10/12 12:39:01;;;;;;;0.17;0.17;;;;;;;;;;6158775;23;20059;-93
2022/10/12 12:41:29;;;;;;;0.10;0.10;;;;;;;;;;6182851;23;20486;-93
2022/10/12 12:43:56;;;;;;;0.10;0.10;;;;;;;;;;6158581;23;20017;-94
2022/10/12 12:46:25;;;;;;;0.10;0.10;;;;;;;;;;6181906;23;20043;-94
2022/10/12 12:48:51;;;;;;;0.10;0.10;;;;;;;;;;6133948;23;20346;-94
2022/10/12 12:51:22;;;;;;;0.10;0.10;;;;;;;;;;6158573;23;20017;-91
2022/10/12 12:53:51;;;;;;;0.20;0.20;;;;;;;;;;6137507;23;20049;-93
2022/10/12 12:56:26;;;;;;;0.17;0.17;;;;;;;;;;6183310;23;20021;-94
2022/10/12 12:58:57;;;;;;;;;;;;;;;;;;6183582;23;20013;-90
2022/10/12 13:01:41;;;;;;;0.10;0.10;;;;;;;;;;6157651;23;19912;-93
2022/10/12 13:04:35;;;;;;;0.10;0.10;;;;;;;;;;6157221;23;20398;-94
2022/10/12 13:07:04;;;;;;;0.20;0.20;;;;;;;;;;6158271;23;20094;-93
2022/10/12 13:09:32;;;;;;;0.10;0.10;;;;;;;;;;6181959;23;20021;-93
2022/10/12 13:12:37;;;;;;;0.10;0.10;;;;;;;;;;6184525;23;20016;-96
2022/10/12 13:15:44;;;;;;;0.15;0.15;;;;;;;;;;6123012;23;20378;-94
2022/10/12 13:18:48;;;;;;;0.10;0.10;;;;;;;;;;6077625;23;20208;-94
2022/10/12 13:21:19;;;;;;;0.20;0.20;;;;;;;;;;5985188;23;20040;-93
2022/10/12 13:23:46;;;;;;;0.10;0.10;;;;;;;;;;5985493;23;20020;-93
2022/10/12 13:39:32;;;;;;;0.10;0.10;;;;;;;;;;5069058;28;20408;-93
2022/10/12 13:41:59;;;;;;;0.10;0.10;;;;;;;;;;5051326;28;20133;-90
2022/10/12 13:44:26;;;;;;;0.10;0.10;;;;;;;;;;5051519;28;20041;-89
2022/10/12 13:46:57;;;;;;;0.10;0.10;;;;;;;;;;5034168;28;20052;-89
2022/10/12 13:49:33;;;;;;;0.10;0.10;;;;;;;;;;5034636;28;20040;-92
2022/10/12 13:51:59;;;;;;;0.10;0.10;;;;;;;;;;5067697;28;20437;-91
2022/10/12 13:54:27;;;;;;;0.10;0.10;;;;;;;;;;5034491;28;20037;-90
2022/10/12 13:56:57;;;;;;;0.10;0.10;;;;;;;;;;5034226;28;20048;-90
2022/10/12 13:59:24;;;;;;;0.10;0.10;;;;;;;;;;5034281;28;20047;-93
2022/10/12 14:01:59;;;;;;;0.10;0.10;;;;;;;;;;5051670;28;20090;-94
2022/10/12 14:04:32;;;;;;;0.10;0.10;;;;;;;;;;5050673;28;20481;-93
2022/10/12 14:06:59;;;;;;;0.10;0.10;;;;;;;;;;5034429;28;20040;-92
2022/10/12 14:09:25;;;;;;;0.10;0.10;;;;;;;;;;5034542;28;20087;-93
2022/10/12 14:11:51;;;;;;;0.10;0.10;;;;;;;;;;5031122;28;20072;-94
2022/10/12 14:14:28;;;;;;;0.13;0.13;;;;;;;;;;5017620;28;20041;-94
2022/10/12 14:16:56;;;;;;;0.10;0.10;;;;;;;;;;5035257;28;20045;-94
2022/10/12 14:19:32;;;;;;;0.10;0.10;;;;;;;;;;5034626;28;20044;-94
2022/10/12 14:21:59;;;;;;;0.10;0.10;;;;;;;;;;5052146;28;20535;-92
2022/10/12 14:24:26;;;;;;;0.17;0.15;;;;;;;;;;5051191;28;20124;-92
2022/10/12 14:26:56;;;;;;;0.10;0.10;;;;;;;;;;5054922;28;20135;-92
2022/10/12 14:29:36;;;;;;;0.10;0.10;;;;;;;;;;5052072;28;20511;-95
2022/10/12 14:32:13;;;;;;;0.10;0.10;;;;;;;;;;5046417;28;20036;-96
2022/10/12 14:35:17;;;;;;;0.10;0.10;;;;;;;;;;5071336;28;20210;-96
2022/10/12 14:38:06;;;;;;;0.15;0.15;;;;;;;;;;5063913;28;20109;-96
2022/10/12 14:41:00;;;;;;;0.10;0.10;;;;;;;;;;5039192;28;20577;-96
2022/10/12 14:43:49;;;;;;;0.10;0.10;;;;;;;;;;5014066;28;20041;-96
2022/10/12 14:46:23;;;;;;;0.15;0.15;;;;;;;;;;5030538;28;20080;-95
2022/10/12 14:49:18;;;;;;;0.10;0.10;;;;;;;;;;5044257;28;20095;-96
2022/10/12 14:52:02;;;;;;;0.10;0.10;;;;;;;;;;5043042;28;20115;-96
2022/10/12 14:54:35;;;;;;;0.10;0.10;;;;;;;;;;5044319;28;20418;-96
2022/10/12 14:57:19;;;;;;;0.10;0.10;;;;;;;;;;5028302;28;20139;-95
2022/10/12 14:59:45;;;;;;;0.20;0.20;;;;;;;;;;5005841;28;20127;-96
2022/10/12 15:02:19;;;;;;;0.10;0.10;;;;;;;;;;5005439;28;20052;-96
2022/10/12 15:05:06;;;;;;;0.10;0.10;;;;;;;;;;5027381;28;20498;-92
2022/10/12 15:07:34;;;;;;;0.10;0.10;;;;;;;;;;5022078;28;20060;-94
2022/10/12 15:15:31;;;;;;;0.10;0.10;;;;;;;;;;5559708;22;20048;-94
2022/10/12 15:17:57;;;;;;;0.20;0.20;;;;;;;;;;5040081;28;20041;-93
2022/10/12 16:02:12;;;;;;;0.10;0.10;;;;;;;;;;5077610;23;20045;-93
2022/10/12 16:04:38;;;;;;;0.10;0.10;;;;;;;;;;5039301;28;20080;-94
2022/10/12 16:07:07;;;;;;;0.10;0.10;;;;;;;;;;5023282;28;20040;-93
2022/10/12 16:09:36;;;;;;;0.10;0.10;;;;;;;;;;5023344;28;20040;-93
2022/10/12 16:12:12;;;;;;;0.10;0.10;;;;;;;;;;5023390;28;20036;-96
2022/10/12 16:14:38;;;;;;;0.10;0.10;;;;;;;;;;5039467;28;20098;-91
2022/10/12 16:17:04;;;;;;;0.10;0.10;;;;;;;;;;5021656;28;20485;-91
2022/10/12 16:19:30;;;;;;;0.10;0.10;;;;;;;;;;5021974;28;20044;-90
2022/10/12 16:22:03;;;;;;;0.10;0.10;;;;;;;;;;5022061;28;20051;-92
2022/10/12 16:24:30;;;;;;;0.10;0.10;;;;;;;;;;5038879;28;20375;-88
2022/10/12 16:26:55;;;;;;;0.10;0.10;;;;;;;;;;5037907;28;20396;-87
2022/10/12 16:29:21;;;;;;;0.10;0.10;;;;;;;;;;5037950;28;20037;-87